createdAt,value
2023-01-13T00:00:01.031Z,981.80
2023-01-13T00:00:11.574Z,981.78
2023-01-13T00:00:22.116Z,981.78
2023-01-13T00:00:32.613Z,981.81
2023-01-13T00:00:43.117Z,981.77
2023-01-13T00:00:53.573Z,981.78
2023-01-13T00:01:04.081Z,981.78
2023-01-13T00:01:14.615Z,981.76
2023-01-13T00:01:25.100Z,981.74
2023-01-13T00:01:35.612Z,981.73
2023-01-13T00:01:46.123Z,981.70
2023-01-13T00:01:56.645Z,981.70
2023-01-13T00:02:07.211Z,981.71
2023-01-13T00:02:17.681Z,981.72
2023-01-13T00:02:28.182Z,981.69
2023-01-13T00:02:38.729Z,981.73
2023-01-13T00:02:49.187Z,981.74
2023-01-13T00:02:59.709Z,981.71
2023-01-13T00:03:10.202Z,981.70
2023-01-13T00:03:20.719Z,981.70
2023-01-13T00:03:31.233Z,981.70
2023-01-13T00:03:41.745Z,981.72
2023-01-13T00:03:52.248Z,981.68
2023-01-13T00:04:02.752Z,981.70
2023-01-13T00:04:13.289Z,981.72
2023-01-13T00:04:23.797Z,981.67
2023-01-13T00:04:34.287Z,981.66
2023-01-13T00:04:44.831Z,981.67
2023-01-13T00:04:55.362Z,981.65
2023-01-13T00:05:05.869Z,981.68
2023-01-13T00:05:16.322Z,981.64
2023-01-13T00:05:26.827Z,981.63
2023-01-13T00:05:37.336Z,981.65
2023-01-13T00:05:47.852Z,981.64
2023-01-13T00:05:58.359Z,981.66
2023-01-13T00:06:08.872Z,981.68
2023-01-13T00:06:19.377Z,981.63
2023-01-13T00:06:29.893Z,981.66
2023-01-13T00:06:40.405Z,981.65
2023-01-13T00:06:50.908Z,981.66
2023-01-13T00:07:01.417Z,981.65
2023-01-13T00:07:11.923Z,981.66
2023-01-13T00:07:22.435Z,981.63
2023-01-13T00:07:32.943Z,981.66
2023-01-13T00:07:43.465Z,981.63
2023-01-13T00:07:53.969Z,981.66
2023-01-13T00:08:04.473Z,981.68
2023-01-13T00:08:15.007Z,981.67
2023-01-13T00:08:25.495Z,981.64
2023-01-13T00:08:36.004Z,981.65
2023-01-13T00:08:46.532Z,981.66
2023-01-13T00:08:57.023Z,981.63
2023-01-13T00:09:07.537Z,981.64
2023-01-13T00:09:18.042Z,981.65
2023-01-13T00:09:28.549Z,981.64
2023-01-13T00:09:39.064Z,981.62
2023-01-13T00:09:49.568Z,981.62
2023-01-13T00:10:00.088Z,981.63
2023-01-13T00:10:10.587Z,981.62
2023-01-13T00:10:21.097Z,981.59
2023-01-13T00:10:31.616Z,981.57
2023-01-13T00:10:42.113Z,981.58
2023-01-13T00:10:52.625Z,981.57
2023-01-13T00:11:03.136Z,981.57
2023-01-13T00:11:13.644Z,981.60
2023-01-13T00:11:24.159Z,981.57
2023-01-13T00:11:34.670Z,981.55
2023-01-13T00:11:45.180Z,981.57
2023-01-13T00:11:55.691Z,981.58
2023-01-13T00:12:06.198Z,981.53
2023-01-13T00:12:16.705Z,981.55
2023-01-13T00:12:27.218Z,981.53
2023-01-13T00:12:37.730Z,981.50
2023-01-13T00:12:48.254Z,981.49
2023-01-13T00:12:58.753Z,981.51
2023-01-13T00:13:09.267Z,981.49
2023-01-13T00:13:19.777Z,981.48
2023-01-13T00:13:30.288Z,981.49
2023-01-13T00:13:40.822Z,981.50
2023-01-13T00:13:51.302Z,981.49
2023-01-13T00:14:01.814Z,981.48
2023-01-13T00:14:12.328Z,981.49
2023-01-13T00:14:22.836Z,981.50
2023-01-13T00:14:33.345Z,981.49
2023-01-13T00:14:43.862Z,981.48
2023-01-13T00:14:54.374Z,981.48
2023-01-13T00:15:04.871Z,981.50
2023-01-13T00:15:15.383Z,981.47
2023-01-13T00:15:25.891Z,981.48
2023-01-13T00:15:36.487Z,981.46
2023-01-13T00:15:46.941Z,981.47
2023-01-13T00:15:57.500Z,981.45
2023-01-13T00:16:07.986Z,981.44
2023-01-13T00:16:18.513Z,981.46
2023-01-13T00:16:28.942Z,981.48
2023-01-13T00:16:39.452Z,981.49
2023-01-13T00:16:49.958Z,981.48
2023-01-13T00:17:00.475Z,981.47
2023-01-13T00:17:10.975Z,981.47
2023-01-13T00:17:21.487Z,981.48
2023-01-13T00:17:31.997Z,981.46
2023-01-13T00:17:42.502Z,981.45
2023-01-13T00:17:53.010Z,981.44
2023-01-13T00:18:03.556Z,981.44
2023-01-13T00:18:14.034Z,981.45
2023-01-13T00:18:24.558Z,981.39
2023-01-13T00:18:35.051Z,981.43
2023-01-13T00:18:45.555Z,981.44
2023-01-13T00:18:56.074Z,981.42
2023-01-13T00:19:06.585Z,981.44
2023-01-13T00:19:17.099Z,981.46
2023-01-13T00:19:27.604Z,981.45
2023-01-13T00:19:38.117Z,981.45
2023-01-13T00:19:48.636Z,981.45
2023-01-13T00:19:59.129Z,981.45
2023-01-13T00:20:09.642Z,981.45
2023-01-13T00:20:20.154Z,981.42
2023-01-13T00:20:30.656Z,981.42
2023-01-13T00:20:41.167Z,981.44
2023-01-13T00:20:51.678Z,981.42
2023-01-13T00:21:02.208Z,981.41
2023-01-13T00:21:12.705Z,981.43
2023-01-13T00:21:23.271Z,981.41
2023-01-13T00:21:33.737Z,981.43
2023-01-13T00:21:44.230Z,981.43
2023-01-13T00:21:54.747Z,981.38
2023-01-13T00:22:05.236Z,981.41
2023-01-13T00:22:15.749Z,981.42
2023-01-13T00:22:26.266Z,981.44
2023-01-13T00:22:36.777Z,981.43
2023-01-13T00:22:47.287Z,981.43
2023-01-13T00:22:57.818Z,981.42
2023-01-13T00:23:08.300Z,981.41
2023-01-13T00:23:18.813Z,981.44
2023-01-13T00:23:29.326Z,981.43
2023-01-13T00:23:39.835Z,981.39
2023-01-13T00:23:50.338Z,981.40
2023-01-13T00:24:00.852Z,981.40
2023-01-13T00:24:11.358Z,981.38
2023-01-13T00:24:21.866Z,981.39
2023-01-13T00:24:32.382Z,981.39
2023-01-13T00:24:42.882Z,981.40
2023-01-13T00:24:53.392Z,981.39
2023-01-13T00:25:03.927Z,981.39
2023-01-13T00:25:14.409Z,981.39
2023-01-13T00:25:24.926Z,981.32
2023-01-13T00:25:35.430Z,981.35
2023-01-13T00:25:45.943Z,981.35
2023-01-13T00:25:56.471Z,981.35
2023-01-13T00:26:06.960Z,981.36
2023-01-13T00:26:17.471Z,981.37
2023-01-13T00:26:27.984Z,981.36
2023-01-13T00:26:38.488Z,981.36
2023-01-13T00:26:49.003Z,981.37
2023-01-13T00:26:59.522Z,981.38
2023-01-13T00:27:10.032Z,981.39
2023-01-13T00:27:20.528Z,981.39
2023-01-13T00:27:31.031Z,981.38
2023-01-13T00:27:41.556Z,981.39
2023-01-13T00:27:52.060Z,981.42
2023-01-13T00:28:02.572Z,981.41
2023-01-13T00:28:13.070Z,981.43
2023-01-13T00:28:23.582Z,981.44
2023-01-13T00:28:34.112Z,981.40
2023-01-13T00:28:44.610Z,981.37
2023-01-13T00:28:55.133Z,981.41
2023-01-13T00:29:05.621Z,981.40
2023-01-13T00:29:16.135Z,981.41
2023-01-13T00:29:26.671Z,981.43
2023-01-13T00:29:37.150Z,981.42
2023-01-13T00:29:47.659Z,981.42
2023-01-13T00:29:58.175Z,981.41
2023-01-13T00:30:08.682Z,981.41
2023-01-13T00:30:19.188Z,981.39
2023-01-13T00:30:29.700Z,981.39
2023-01-13T00:30:40.206Z,981.39
2023-01-13T00:30:50.764Z,981.38
2023-01-13T00:31:01.317Z,981.40
2023-01-13T00:31:11.762Z,981.39
2023-01-13T00:31:22.292Z,981.39
2023-01-13T00:31:32.848Z,981.37
2023-01-13T00:31:43.258Z,981.39
2023-01-13T00:31:53.796Z,981.39
2023-01-13T00:32:04.280Z,981.40
2023-01-13T00:32:14.787Z,981.38
2023-01-13T00:32:25.293Z,981.40
2023-01-13T00:32:35.813Z,981.40
2023-01-13T00:32:46.313Z,981.39
2023-01-13T00:32:56.823Z,981.40
2023-01-13T00:33:07.371Z,981.39
2023-01-13T00:33:17.845Z,981.38
2023-01-13T00:33:28.355Z,981.40
2023-01-13T00:33:38.864Z,981.38
2023-01-13T00:33:49.376Z,981.38
2023-01-13T00:33:59.886Z,981.38
2023-01-13T00:34:10.401Z,981.38
2023-01-13T00:34:20.897Z,981.37
2023-01-13T00:34:31.412Z,981.36
2023-01-13T00:34:41.915Z,981.35
2023-01-13T00:34:52.427Z,981.37
2023-01-13T00:35:02.933Z,981.35
2023-01-13T00:35:13.443Z,981.33
2023-01-13T00:35:23.949Z,981.38
2023-01-13T00:35:34.457Z,981.34
2023-01-13T00:35:44.966Z,981.35
2023-01-13T00:35:55.471Z,981.33
2023-01-13T00:36:05.994Z,981.34
2023-01-13T00:36:16.494Z,981.31
2023-01-13T00:36:27.026Z,981.30
2023-01-13T00:36:37.516Z,981.32
2023-01-13T00:36:48.018Z,981.32
2023-01-13T00:36:58.535Z,981.29
2023-01-13T00:37:09.037Z,981.31
2023-01-13T00:37:19.543Z,981.30
2023-01-13T00:37:30.057Z,981.30
2023-01-13T00:37:40.563Z,981.31
2023-01-13T00:37:51.070Z,981.32
2023-01-13T00:38:01.584Z,981.32
2023-01-13T00:38:12.091Z,981.31
2023-01-13T00:38:22.599Z,981.31
2023-01-13T00:38:33.166Z,981.32
2023-01-13T00:38:43.613Z,981.30
2023-01-13T00:38:54.127Z,981.31
2023-01-13T00:39:04.668Z,981.33
2023-01-13T00:39:15.145Z,981.32
2023-01-13T00:39:25.648Z,981.33
2023-01-13T00:39:36.155Z,981.31
2023-01-13T00:39:46.666Z,981.29
2023-01-13T00:39:57.174Z,981.27
2023-01-13T00:40:07.715Z,981.30
2023-01-13T00:40:18.193Z,981.31
2023-01-13T00:40:28.720Z,981.32
2023-01-13T00:40:39.204Z,981.33
2023-01-13T00:40:49.724Z,981.32
2023-01-13T00:41:00.242Z,981.31
2023-01-13T00:41:10.734Z,981.32
2023-01-13T00:41:21.251Z,981.32
2023-01-13T00:41:31.752Z,981.33
2023-01-13T00:41:42.272Z,981.33
2023-01-13T00:41:52.770Z,981.32
2023-01-13T00:42:03.286Z,981.33
2023-01-13T00:42:13.788Z,981.34
2023-01-13T00:42:24.297Z,981.32
2023-01-13T00:42:34.808Z,981.30
2023-01-13T00:42:45.314Z,981.33
2023-01-13T00:42:55.820Z,981.31
2023-01-13T00:43:06.330Z,981.30
2023-01-13T00:43:16.842Z,981.30
2023-01-13T00:43:27.351Z,981.29
2023-01-13T00:43:37.860Z,981.29
2023-01-13T00:43:48.367Z,981.33
2023-01-13T00:43:58.892Z,981.30
2023-01-13T00:44:09.420Z,981.30
2023-01-13T00:44:19.892Z,981.29
2023-01-13T00:44:30.398Z,981.28
2023-01-13T00:44:40.909Z,981.28
2023-01-13T00:44:51.419Z,981.27
2023-01-13T00:45:01.926Z,981.27
2023-01-13T00:45:12.435Z,981.30
2023-01-13T00:45:22.984Z,981.29
2023-01-13T00:45:33.450Z,981.29
2023-01-13T00:45:43.965Z,981.27
2023-01-13T00:45:54.476Z,981.30
2023-01-13T00:46:05.094Z,981.28
2023-01-13T00:46:15.590Z,981.28
2023-01-13T00:46:26.067Z,981.25
2023-01-13T00:46:36.573Z,981.26
2023-01-13T00:46:47.088Z,981.25
2023-01-13T00:46:57.523Z,981.26
2023-01-13T00:47:08.029Z,981.24
2023-01-13T00:47:18.542Z,981.26
2023-01-13T00:47:29.057Z,981.25
2023-01-13T00:47:39.558Z,981.29
2023-01-13T00:47:50.075Z,981.28
2023-01-13T00:48:00.583Z,981.28
2023-01-13T00:48:11.107Z,981.25
2023-01-13T00:48:21.591Z,981.26
2023-01-13T00:48:32.100Z,981.29
2023-01-13T00:48:42.608Z,981.24
2023-01-13T00:48:53.117Z,981.28
2023-01-13T00:49:03.619Z,981.27
2023-01-13T00:49:14.150Z,981.26
2023-01-13T00:49:24.639Z,981.29
2023-01-13T00:49:35.145Z,981.28
2023-01-13T00:49:45.652Z,981.25
2023-01-13T00:49:56.168Z,981.26
2023-01-13T00:50:06.671Z,981.29
2023-01-13T00:50:17.204Z,981.27
2023-01-13T00:50:27.691Z,981.25
2023-01-13T00:50:38.199Z,981.29
2023-01-13T00:50:48.709Z,981.25
2023-01-13T00:50:59.217Z,981.23
2023-01-13T00:51:09.736Z,981.22
2023-01-13T00:51:20.266Z,981.23
2023-01-13T00:51:30.750Z,981.21
2023-01-13T00:51:41.257Z,981.21
2023-01-13T00:51:51.759Z,981.16
2023-01-13T00:52:02.278Z,981.19
2023-01-13T00:52:12.777Z,981.21
2023-01-13T00:52:23.288Z,981.20
2023-01-13T00:52:33.793Z,981.19
2023-01-13T00:52:44.306Z,981.20
2023-01-13T00:52:54.821Z,981.22
2023-01-13T00:53:05.325Z,981.24
2023-01-13T00:53:15.831Z,981.18
2023-01-13T00:53:26.342Z,981.18
2023-01-13T00:53:36.848Z,981.21
2023-01-13T00:53:47.363Z,981.24
2023-01-13T00:53:57.867Z,981.20
2023-01-13T00:54:08.375Z,981.22
2023-01-13T00:54:18.887Z,981.25
2023-01-13T00:54:29.395Z,981.20
2023-01-13T00:54:39.908Z,981.22
2023-01-13T00:54:50.413Z,981.23
2023-01-13T00:55:00.944Z,981.20
2023-01-13T00:55:11.426Z,981.23
2023-01-13T00:55:21.935Z,981.20
2023-01-13T00:55:32.449Z,981.23
2023-01-13T00:55:42.956Z,981.19
2023-01-13T00:55:53.469Z,981.22
2023-01-13T00:56:03.976Z,981.20
2023-01-13T00:56:14.551Z,981.21
2023-01-13T00:56:38.975Z,981.19
2023-01-13T00:56:41.029Z,981.18
2023-01-13T00:56:46.012Z,981.17
2023-01-13T00:56:56.528Z,981.17
2023-01-13T00:57:07.033Z,981.17
2023-01-13T00:57:17.549Z,981.13
2023-01-13T00:57:28.067Z,981.17
2023-01-13T00:57:38.557Z,981.14
2023-01-13T00:57:49.072Z,981.22
2023-01-13T00:57:59.581Z,981.13
2023-01-13T00:58:10.091Z,981.15
2023-01-13T00:58:20.607Z,981.17
2023-01-13T00:58:31.119Z,981.18
2023-01-13T00:58:41.631Z,981.16
2023-01-13T00:58:52.139Z,981.18
2023-01-13T00:59:02.645Z,981.16
2023-01-13T00:59:13.171Z,981.15
2023-01-13T00:59:23.669Z,981.15
2023-01-13T00:59:34.182Z,981.16
2023-01-13T00:59:44.684Z,981.14
2023-01-13T00:59:55.207Z,981.17
2023-01-13T01:00:05.709Z,981.16
2023-01-13T01:00:16.217Z,981.14
2023-01-13T01:00:26.718Z,981.12
2023-01-13T01:00:37.331Z,981.13
2023-01-13T01:00:47.757Z,981.13
2023-01-13T01:00:58.444Z,981.12
2023-01-13T01:01:08.878Z,981.08
2023-01-13T01:01:19.465Z,981.12
2023-01-13T01:01:29.955Z,981.10
2023-01-13T01:01:40.576Z,981.10
2023-01-13T01:01:50.935Z,981.12
2023-01-13T01:02:01.544Z,981.14
2023-01-13T01:02:11.998Z,981.15
2023-01-13T01:02:22.359Z,981.15
2023-01-13T01:02:32.963Z,981.15
2023-01-13T01:02:43.395Z,981.18
2023-01-13T01:02:53.866Z,981.16
2023-01-13T01:03:04.374Z,981.16
2023-01-13T01:03:14.897Z,981.20
2023-01-13T01:03:25.394Z,981.14
2023-01-13T01:03:35.900Z,981.18
2023-01-13T01:03:46.410Z,981.19
2023-01-13T01:03:56.912Z,981.18
2023-01-13T01:04:07.425Z,981.19
2023-01-13T01:04:17.931Z,981.18
2023-01-13T01:04:28.445Z,981.18
2023-01-13T01:04:38.954Z,981.15
2023-01-13T01:04:49.472Z,981.18
2023-01-13T01:04:59.986Z,981.18
2023-01-13T01:05:10.483Z,981.11
2023-01-13T01:05:21.000Z,981.14
2023-01-13T01:05:31.509Z,981.15
2023-01-13T01:05:42.073Z,981.11
2023-01-13T01:05:52.530Z,981.13
2023-01-13T01:06:03.034Z,981.12
2023-01-13T01:06:13.544Z,981.12
2023-01-13T01:06:24.050Z,981.14
2023-01-13T01:06:34.561Z,981.12
2023-01-13T01:06:45.066Z,981.13
2023-01-13T01:06:55.579Z,981.14
2023-01-13T01:07:06.085Z,981.14
2023-01-13T01:07:16.595Z,981.13
2023-01-13T01:07:27.106Z,981.13
2023-01-13T01:07:37.628Z,981.14
2023-01-13T01:07:48.129Z,981.15
2023-01-13T01:07:58.653Z,981.13
2023-01-13T01:08:09.152Z,981.16
2023-01-13T01:08:19.661Z,981.15
2023-01-13T01:08:30.168Z,981.12
2023-01-13T01:08:40.675Z,981.18
2023-01-13T01:08:51.188Z,981.15
2023-01-13T01:09:01.693Z,981.16
2023-01-13T01:09:12.203Z,981.15
2023-01-13T01:09:22.714Z,981.17
2023-01-13T01:09:33.222Z,981.14
2023-01-13T01:09:43.745Z,981.15
2023-01-13T01:09:54.252Z,981.12
2023-01-13T01:10:04.751Z,981.13
2023-01-13T01:10:15.265Z,981.12
2023-01-13T01:10:25.778Z,981.12
2023-01-13T01:10:36.284Z,981.17
2023-01-13T01:10:46.812Z,981.17
2023-01-13T01:10:57.305Z,981.15
2023-01-13T01:11:07.813Z,981.17
2023-01-13T01:11:18.325Z,981.17
2023-01-13T01:11:28.832Z,981.16
2023-01-13T01:11:39.450Z,981.17
2023-01-13T01:11:49.869Z,981.16
2023-01-13T01:12:00.354Z,981.13
2023-01-13T01:12:10.865Z,981.18
2023-01-13T01:12:21.387Z,981.14
2023-01-13T01:12:31.891Z,981.15
2023-01-13T01:12:42.419Z,981.18
2023-01-13T01:12:52.906Z,981.15
2023-01-13T01:13:03.417Z,981.13
2023-01-13T01:13:13.928Z,981.15
2023-01-13T01:13:24.441Z,981.15
2023-01-13T01:13:34.972Z,981.14
2023-01-13T01:13:45.457Z,981.15
2023-01-13T01:13:55.972Z,981.18
2023-01-13T01:14:06.478Z,981.17
2023-01-13T01:14:16.992Z,981.19
2023-01-13T01:14:27.516Z,981.18
2023-01-13T01:14:38.022Z,981.16
2023-01-13T01:14:48.518Z,981.15
2023-01-13T01:14:59.029Z,981.18
2023-01-13T01:15:09.582Z,981.17
2023-01-13T01:15:20.043Z,981.18
2023-01-13T01:15:30.556Z,981.19
2023-01-13T01:15:41.060Z,981.18
2023-01-13T01:15:51.616Z,981.17
2023-01-13T01:16:02.139Z,981.17
2023-01-13T01:16:12.711Z,981.17
2023-01-13T01:16:23.173Z,981.15
2023-01-13T01:16:33.707Z,981.19
2023-01-13T01:16:44.122Z,981.18
2023-01-13T01:16:54.643Z,981.18
2023-01-13T01:17:05.153Z,981.17
2023-01-13T01:17:15.653Z,981.17
2023-01-13T01:17:26.159Z,981.15
2023-01-13T01:17:36.665Z,981.16
2023-01-13T01:17:47.184Z,981.16
2023-01-13T01:17:57.692Z,981.17
2023-01-13T01:18:08.200Z,981.17
2023-01-13T01:18:18.732Z,981.16
2023-01-13T01:18:29.216Z,981.15
2023-01-13T01:18:39.729Z,981.15
2023-01-13T01:18:50.233Z,981.15
2023-01-13T01:19:00.795Z,981.14
2023-01-13T01:19:11.251Z,981.15
2023-01-13T01:19:21.780Z,981.18
2023-01-13T01:19:32.278Z,981.11
2023-01-13T01:19:42.787Z,981.12
2023-01-13T01:19:53.310Z,981.14
2023-01-13T01:20:03.798Z,981.16
2023-01-13T01:20:14.307Z,981.14
2023-01-13T01:20:24.827Z,981.14
2023-01-13T01:20:35.333Z,981.09
2023-01-13T01:20:45.839Z,981.12
2023-01-13T01:20:56.349Z,981.13
2023-01-13T01:21:06.851Z,981.14
2023-01-13T01:21:17.365Z,981.13
2023-01-13T01:21:27.892Z,981.09
2023-01-13T01:21:38.395Z,981.13
2023-01-13T01:21:48.891Z,981.12
2023-01-13T01:21:59.402Z,981.16
2023-01-13T01:22:09.922Z,981.12
2023-01-13T01:22:20.431Z,981.13
2023-01-13T01:22:30.933Z,981.13
2023-01-13T01:22:41.441Z,981.14
2023-01-13T01:22:51.956Z,981.14
2023-01-13T01:23:02.458Z,981.16
2023-01-13T01:23:12.963Z,981.15
2023-01-13T01:23:23.471Z,981.15
2023-01-13T01:23:33.988Z,981.13
2023-01-13T01:23:44.511Z,981.12
2023-01-13T01:23:55.003Z,981.11
2023-01-13T01:24:05.516Z,981.17
2023-01-13T01:24:16.026Z,981.11
2023-01-13T01:24:26.524Z,981.14
2023-01-13T01:24:37.038Z,981.10
2023-01-13T01:24:47.547Z,981.08
2023-01-13T01:24:58.057Z,981.10
2023-01-13T01:25:08.562Z,981.12
2023-01-13T01:25:19.074Z,981.10
2023-01-13T01:25:29.585Z,981.11
2023-01-13T01:25:40.094Z,981.11
2023-01-13T01:25:50.601Z,981.10
2023-01-13T01:26:01.113Z,981.09
2023-01-13T01:26:11.617Z,981.10
2023-01-13T01:26:22.139Z,981.08
2023-01-13T01:26:32.642Z,981.06
2023-01-13T01:26:43.148Z,981.08
2023-01-13T01:26:53.655Z,981.04
2023-01-13T01:27:04.195Z,981.07
2023-01-13T01:27:14.671Z,981.02
2023-01-13T01:27:25.185Z,981.05
2023-01-13T01:27:35.698Z,981.06
2023-01-13T01:27:46.239Z,981.03
2023-01-13T01:27:56.709Z,981.01
2023-01-13T01:28:07.236Z,981.01
2023-01-13T01:28:17.747Z,981.00
2023-01-13T01:28:28.254Z,981.01
2023-01-13T01:28:38.760Z,981.01
2023-01-13T01:28:49.268Z,981.02
2023-01-13T01:28:59.779Z,981.00
2023-01-13T01:29:10.286Z,981.07
2023-01-13T01:29:20.799Z,981.03
2023-01-13T01:29:31.300Z,981.03
2023-01-13T01:29:41.807Z,981.07
2023-01-13T01:29:52.318Z,980.97
2023-01-13T01:30:02.851Z,980.98
2023-01-13T01:30:13.335Z,981.02
2023-01-13T01:30:23.844Z,981.03
2023-01-13T01:30:34.353Z,981.04
2023-01-13T01:30:44.865Z,981.02
2023-01-13T01:30:55.388Z,981.03
2023-01-13T01:31:05.963Z,981.03
2023-01-13T01:31:16.465Z,981.05
2023-01-13T01:31:26.947Z,981.04
2023-01-13T01:31:37.435Z,981.06
2023-01-13T01:31:47.942Z,981.07
2023-01-13T01:31:58.432Z,981.09
2023-01-13T01:32:08.969Z,981.08
2023-01-13T01:32:19.445Z,981.08
2023-01-13T01:32:29.955Z,981.08
2023-01-13T01:32:40.464Z,981.11
2023-01-13T01:32:50.976Z,981.06
2023-01-13T01:33:01.485Z,981.07
2023-01-13T01:33:11.990Z,981.09
2023-01-13T01:33:22.517Z,981.03
2023-01-13T01:33:33.007Z,981.04
2023-01-13T01:33:43.519Z,981.01
2023-01-13T01:33:54.051Z,981.05
2023-01-13T01:34:04.544Z,981.04
2023-01-13T01:34:15.053Z,981.03
2023-01-13T01:34:25.566Z,981.03
2023-01-13T01:34:36.081Z,981.03
2023-01-13T01:34:46.589Z,981.02
2023-01-13T01:34:57.097Z,981.02
2023-01-13T01:35:07.612Z,980.99
2023-01-13T01:35:18.121Z,981.01
2023-01-13T01:35:28.627Z,981.00
2023-01-13T01:35:39.133Z,981.01
2023-01-13T01:35:49.642Z,981.02
2023-01-13T01:36:00.166Z,981.02
2023-01-13T01:36:10.687Z,981.00
2023-01-13T01:36:21.176Z,981.01
2023-01-13T01:36:31.728Z,980.96
2023-01-13T01:36:42.202Z,980.99
2023-01-13T01:36:52.710Z,980.99
2023-01-13T01:37:03.216Z,981.00
2023-01-13T01:37:13.731Z,981.01
2023-01-13T01:37:24.236Z,981.00
2023-01-13T01:37:34.751Z,980.98
2023-01-13T01:37:45.263Z,980.97
2023-01-13T01:37:55.779Z,980.99
2023-01-13T01:38:06.284Z,981.03
2023-01-13T01:38:16.793Z,981.00
2023-01-13T01:38:27.305Z,981.04
2023-01-13T01:38:37.817Z,981.02
2023-01-13T01:38:48.321Z,981.03
2023-01-13T01:38:58.833Z,981.04
2023-01-13T01:39:09.344Z,981.03
2023-01-13T01:39:19.853Z,981.03
2023-01-13T01:39:30.359Z,981.00
2023-01-13T01:39:40.869Z,981.01
2023-01-13T01:39:51.389Z,981.02
2023-01-13T01:40:01.894Z,981.01
2023-01-13T01:40:12.399Z,981.01
2023-01-13T01:40:22.905Z,981.03
2023-01-13T01:40:33.412Z,981.04
2023-01-13T01:40:43.926Z,981.05
2023-01-13T01:40:54.440Z,981.02
2023-01-13T01:41:04.948Z,981.04
2023-01-13T01:41:15.458Z,981.05
2023-01-13T01:41:25.962Z,981.06
2023-01-13T01:41:36.499Z,981.08
2023-01-13T01:41:46.982Z,981.07
2023-01-13T01:41:57.509Z,981.07
2023-01-13T01:42:07.999Z,981.09
2023-01-13T01:42:18.502Z,981.10
2023-01-13T01:42:29.022Z,981.10
2023-01-13T01:42:39.533Z,981.10
2023-01-13T01:42:50.047Z,981.12
2023-01-13T01:43:00.549Z,981.17
2023-01-13T01:43:11.067Z,981.11
2023-01-13T01:43:21.572Z,981.06
2023-01-13T01:43:32.088Z,981.11
2023-01-13T01:43:42.596Z,981.12
2023-01-13T01:43:53.103Z,981.10
2023-01-13T01:44:03.619Z,981.13
2023-01-13T01:44:14.122Z,981.12
2023-01-13T01:44:24.632Z,981.14
2023-01-13T01:44:35.140Z,981.15
2023-01-13T01:44:45.645Z,981.18
2023-01-13T01:44:56.160Z,981.15
2023-01-13T01:45:06.665Z,981.15
2023-01-13T01:45:17.210Z,981.12
2023-01-13T01:45:27.681Z,981.13
2023-01-13T01:45:38.205Z,981.13
2023-01-13T01:45:48.704Z,981.12
2023-01-13T01:45:59.240Z,981.13
2023-01-13T01:46:09.727Z,981.11
2023-01-13T01:46:20.309Z,981.11
2023-01-13T01:46:30.824Z,981.11
2023-01-13T01:46:41.337Z,981.11
2023-01-13T01:46:51.926Z,981.10
2023-01-13T01:47:02.361Z,981.12
2023-01-13T01:47:12.810Z,981.12
2023-01-13T01:47:23.297Z,981.11
2023-01-13T01:47:33.810Z,981.14
2023-01-13T01:47:44.320Z,981.14
2023-01-13T01:47:54.828Z,981.15
2023-01-13T01:48:05.350Z,981.13
2023-01-13T01:48:15.855Z,981.13
2023-01-13T01:48:26.381Z,981.12
2023-01-13T01:48:36.874Z,981.13
2023-01-13T01:48:47.383Z,981.12
2023-01-13T01:48:57.892Z,981.08
2023-01-13T01:49:08.443Z,981.12
2023-01-13T01:49:18.930Z,981.09
2023-01-13T01:49:29.416Z,981.10
2023-01-13T01:49:39.928Z,981.10
2023-01-13T01:49:50.438Z,981.11
2023-01-13T01:50:00.944Z,981.08
2023-01-13T01:50:11.453Z,981.10
2023-01-13T01:50:21.956Z,981.12
2023-01-13T01:50:32.471Z,981.11
2023-01-13T01:50:42.974Z,981.12
2023-01-13T01:50:53.483Z,981.11
2023-01-13T01:51:03.996Z,981.14
2023-01-13T01:51:14.513Z,981.15
2023-01-13T01:51:25.018Z,981.12
2023-01-13T01:51:35.518Z,981.14
2023-01-13T01:51:46.036Z,981.14
2023-01-13T01:51:56.541Z,981.12
2023-01-13T01:52:07.053Z,981.13
2023-01-13T01:52:17.567Z,981.10
2023-01-13T01:52:28.068Z,981.11
2023-01-13T01:52:38.592Z,981.10
2023-01-13T01:52:49.091Z,981.09
2023-01-13T01:52:59.604Z,981.11
2023-01-13T01:53:10.118Z,981.10
2023-01-13T01:53:20.626Z,981.10
2023-01-13T01:53:31.128Z,981.08
2023-01-13T01:53:41.639Z,981.11
2023-01-13T01:53:52.153Z,981.13
2023-01-13T01:54:02.662Z,981.12
2023-01-13T01:54:13.195Z,981.14
2023-01-13T01:54:23.685Z,981.12
2023-01-13T01:54:34.191Z,981.17
2023-01-13T01:54:44.707Z,981.14
2023-01-13T01:54:55.207Z,981.17
2023-01-13T01:55:05.722Z,981.15
2023-01-13T01:55:16.225Z,981.12
2023-01-13T01:55:26.734Z,981.17
2023-01-13T01:55:37.281Z,981.12
2023-01-13T01:55:47.755Z,981.16
2023-01-13T01:55:58.260Z,981.17
2023-01-13T01:56:08.777Z,981.17
2023-01-13T01:56:19.280Z,981.17
2023-01-13T01:56:29.791Z,981.15
2023-01-13T01:56:40.299Z,981.17
2023-01-13T01:56:50.808Z,981.19
2023-01-13T01:57:01.315Z,981.21
2023-01-13T01:57:11.823Z,981.19
2023-01-13T01:57:22.330Z,981.20
2023-01-13T01:57:32.854Z,981.21
2023-01-13T01:57:43.349Z,981.17
2023-01-13T01:57:53.859Z,981.21
2023-01-13T01:58:04.367Z,981.18
2023-01-13T01:58:14.876Z,981.20
2023-01-13T01:58:25.386Z,981.20
2023-01-13T01:58:35.896Z,981.16
2023-01-13T01:58:46.401Z,981.16
2023-01-13T01:58:56.919Z,981.19
2023-01-13T01:59:07.427Z,981.15
2023-01-13T01:59:17.932Z,981.16
2023-01-13T01:59:28.465Z,981.13
2023-01-13T01:59:38.957Z,981.15
2023-01-13T01:59:49.467Z,981.12
2023-01-13T01:59:59.973Z,981.15
2023-01-13T02:00:10.489Z,981.14
2023-01-13T02:00:20.996Z,981.15
2023-01-13T02:00:31.559Z,981.16
2023-01-13T02:00:42.115Z,981.16
2023-01-13T02:00:52.721Z,981.19
2023-01-13T02:01:03.229Z,981.09
2023-01-13T02:01:13.656Z,981.18
2023-01-13T02:01:24.160Z,981.19
2023-01-13T02:01:34.665Z,981.20
2023-01-13T02:01:45.239Z,981.15
2023-01-13T02:01:55.709Z,981.17
2023-01-13T02:02:06.338Z,981.17
2023-01-13T02:02:16.652Z,981.18
2023-01-13T02:02:27.117Z,981.19
2023-01-13T02:02:37.687Z,981.18
2023-01-13T02:02:48.195Z,981.22
2023-01-13T02:02:58.654Z,981.18
2023-01-13T02:03:09.160Z,981.20
2023-01-13T02:03:19.694Z,981.19
2023-01-13T02:03:30.198Z,981.21
2023-01-13T02:03:40.691Z,981.21
2023-01-13T02:03:51.209Z,981.22
2023-01-13T02:04:01.717Z,981.21
2023-01-13T02:04:12.224Z,981.22
2023-01-13T02:04:22.744Z,981.23
2023-01-13T02:04:33.259Z,981.21
2023-01-13T02:04:43.750Z,981.22
2023-01-13T02:04:54.257Z,981.21
2023-01-13T02:05:04.769Z,981.17
2023-01-13T02:05:15.275Z,981.18
2023-01-13T02:05:25.788Z,981.17
2023-01-13T02:05:36.293Z,981.15
2023-01-13T02:05:46.808Z,981.12
2023-01-13T02:05:57.316Z,981.13
2023-01-13T02:06:07.823Z,981.12
2023-01-13T02:06:18.335Z,981.12
2023-01-13T02:06:28.849Z,981.11
2023-01-13T02:06:39.374Z,981.14
2023-01-13T02:06:49.867Z,981.14
2023-01-13T02:07:00.370Z,981.10
2023-01-13T02:07:10.914Z,981.09
2023-01-13T02:07:21.396Z,981.10
2023-01-13T02:07:31.903Z,981.11
2023-01-13T02:07:42.412Z,981.11
2023-01-13T02:07:52.918Z,981.07
2023-01-13T02:08:03.430Z,981.09
2023-01-13T02:08:13.934Z,981.09
2023-01-13T02:08:24.446Z,981.09
2023-01-13T02:08:34.956Z,981.07
2023-01-13T02:08:45.459Z,981.07
2023-01-13T02:08:55.985Z,981.06
2023-01-13T02:09:06.482Z,981.05
2023-01-13T02:09:16.986Z,981.06
2023-01-13T02:09:27.494Z,981.06
2023-01-13T02:09:38.004Z,981.06
2023-01-13T02:09:48.511Z,981.06
2023-01-13T02:09:59.027Z,981.05
2023-01-13T02:10:09.622Z,981.04
2023-01-13T02:10:20.039Z,981.03
2023-01-13T02:10:30.549Z,980.96
2023-01-13T02:10:41.056Z,980.99
2023-01-13T02:10:51.566Z,981.02
2023-01-13T02:11:02.073Z,980.98